Indiana Beach, Indiana
Current Conditions -  °F | °C
As of 3:55 PM on Sunday 21 Dec 2014 (Local Time) from KMCX Reporting Station
Clear Clear  
Wind Chill: 33°   Ceiling: Unl
Heat Index: 38°   Visibility: 10mi
Dew Point: 30°   Wind: 7mph
Humidity: 72%   Direction: 170°S
Pressure: 30.14"   Gusts: NA
Location:  40.8005°N, 86.6926°W
Report Text: KMCX 212055Z AUTO 17006KT 10SM CLR 03/M01 A3014 RMK AO2 T00331013
Loading
Personal Weather Stations






























Interactive Weather Map New forecast layout! Learn more

10-Day Weather Forecast

Advertisements
Track Severe Weather on mobile